< Typhoon 197702 1977 Season Typhoon 197704 >
Typhoon 197703 (SARAH)
General InformationTrack Information on Google MapsDetailed Wind Information || Disaster Info.ResourceGoogle EarthGE AnimationAtom FeedGeoJSON
Detalied Best Track (Time Zone = UTC)
Year Month Day Hour Lat. Long. Pressure (hPa) Wind (kt) Class Image Chart
1977 7 14 06 8.0 135.0 1004 0 2 -- Chart
1977 7 14 12 8.0 134.0 1004 0 2 -- Chart
1977 7 14 18 8.0 133.0 1004 0 2 -- Chart
1977 7 15 00 8.0 132.0 1004 0 2 -- Chart
1977 7 15 06 8.0 131.0 1004 0 2 -- Chart
1977 7 15 12 8.5 130.5 1004 0 2 -- Chart
1977 7 15 18 9.0 130.0 1004 0 2 -- Chart
1977 7 16 00 9.5 129.4 1004 0 2 -- Chart
1977 7 16 06 10.0 129.0 1002 0 2 -- Chart
1977 7 16 12 10.5 128.4 1000 0 2 -- Chart
1977 7 16 18 11.0 127.4 1000 0 2 -- Chart
1977 7 17 00 12.0 125.6 996 35 3 -- Chart
1977 7 17 06 13.0 124.7 996 35 3 -- Chart
1977 7 17 12 13.6 123.5 990 45 3 -- Chart
1977 7 17 18 13.7 122.3 990 45 3 -- Chart
1977 7 18 00 14.7 121.2 990 40 3 -- Chart
1977 7 18 06 16.0 120.5 990 40 3 -- Chart
1977 7 18 12 16.2 118.7 990 45 3 -- Chart
1977 7 18 18 16.5 117.0 990 45 3 -- Chart
1977 7 19 00 17.2 115.7 985 50 4 -- Chart
1977 7 19 06 17.0 113.6 985 55 4 -- Chart
1977 7 19 12 17.0 113.1 985 55 4 -- Chart
1977 7 19 18 17.0 112.5 980 55 4 -- Chart
1977 7 20 00 17.5 111.9 975 65 5 -- Chart
1977 7 20 06 18.2 111.3 970 70 5 -- Chart
1977 7 20 12 19.4 111.0 970 70 5 -- Chart
1977 7 20 18 19.6 109.8 975 60 4 -- Chart
1977 7 21 00 20.2 108.5 980 55 4 -- Chart
1977 7 21 06 20.5 107.0 980 55 4 -- Chart
1977 7 21 12 20.8 105.5 990 45 3 -- Chart
1977 7 21 18 20.9 104.2 990 40 3 -- Chart
1977 7 22 00 21.0 103.0 990 0 2 -- Chart
1977 7 22 06 21.0 102.0 990 0 2 -- Chart
1977 7 22 12 21.1 100.9 996 0 2 -- Chart
Japan Meteorological Agency Best Track Data | Correction Date : 1992-10-21
< Typhoon 197702 1977 Season Typhoon 197704 >

Help